Airfield :
LOGIN :

Register | Disclaimer

   EN    FR    IT 

 










Legend :    VFR   Marginal VFR   IFR   Intensive IFR   Very Intensive IFR
Visi :
Ceiling :
>= 8 km
>= 3000ft
5 to 8 km
1000 to 3000 ft
1500m to 5 km
500 to 1000 ft
800 to 1500m
200 to 500 ft
< 800m
< 200 ft
Symbols :   Thunderstorms  Fog  Heavy snow  Heavy precipitations  Wind > 20 kt
SIGMETs :     Misc.  Thunderstorms  Icing  Turbulence  Mountain Waves  Volcanic Ashes







- Airport Elevation : 16 ft
- IATA code : SDR


LEXJ - Santander Cantabria

CURRENT METAR :
  • 162200Z 22006KT 9999 SCT042 SCT053 08/06 Q1030

EXPIRED METARs :
  • 162130Z 22004KT 190V250 9999 SCT042 SCT053 07/06 Q1030
  • 162100Z 24004KT 210V290 9999 FEW042 SCT053 07/06 Q1030
  • 162030Z 22007KT 180V240 9999 -RA FEW034 SCT045 07/06 Q1029
  • 162000Z 22009KT 9999 FEW034 SCT045 08/06 Q1029
  • 161930Z 01003KT 240V050 9999 SCT034 BKN045 09/06 Q1029
  • 161918Z 01004KT 320V080 9999 -RA SCT032 BKN040 09/06 Q1029

TAF TAF LEXJ
Valid from the 16 at 21:00 until the 17 at 21:00 UTC


162000Z 1621/1721 25006KT 9999 SCT030 BKN050 TX12/1715Z TN07/1703Z
TEMPO 1621/1720 4000 RA
No reported NOTAMs for that airfield.



MET'MAP, your aeronautical weather chart ! - Copyright ORBIFLY December 2007 - Disclaimer

ORBIFLY MET'MAP TEAM :

Programming & Development : Alexandra Zaïnal
Concept & Development : Baudouin d'Aumeries
Co-Development & Prog : Marc-Olivier Méhu
Technical & hardware support : Manuel Goepfert

Contact : metmap@orbifly.com




SOURCES & CREDITS :

   NOAA